Time;durP1;ratioP1;P1;durP2;ratioP2;P2;SDS_P1;SDS_P2;PMS_P1;PMS_P2;Temp;Humidity;BMP_temperature;BMP_pressure;BME280_temperature;BME280_humidity;BME280_pressure;Samples;Min_cycle;Max_cycle;Signal;HPM_P1;HPM_P2
2023/09/19 00:00:34;;;;;;;8.40;4.07;;;;;;;;;;4995237;28;20042;-68
2023/09/19 00:03:00;;;;;;;11.65;4.50;;;;;;;;;;4994454;28;20579;-68
2023/09/19 00:05:29;;;;;;;12.15;4.18;;;;;;;;;;4985683;28;20574;-68
2023/09/19 00:07:58;;;;;;;10.82;3.85;;;;;;;;;;4986002;28;20030;-68
2023/09/19 00:10:26;;;;;;;9.70;3.88;;;;;;;;;;4996491;28;20034;-68
2023/09/19 00:12:55;;;;;;;9.63;4.35;;;;;;;;;;4995217;28;20983;-68
2023/09/19 00:15:21;;;;;;;7.88;3.60;;;;;;;;;;4995534;28;20073;-68
2023/09/19 00:17:47;;;;;;;7.88;3.83;;;;;;;;;;4996257;28;20030;-68
2023/09/19 00:20:17;;;;;;;5.22;3.50;;;;;;;;;;4989095;28;20034;-68
2023/09/19 00:22:43;;;;;;;9.70;3.78;;;;;;;;;;4988866;28;20041;-69
2023/09/19 00:25:11;;;;;;;10.05;4.30;;;;;;;;;;4992831;28;20117;-68
2023/09/19 00:27:42;;;;;;;8.95;3.20;;;;;;;;;;4996188;28;20034;-68
2023/09/19 00:30:15;;;;;;;7.07;3.50;;;;;;;;;;4996062;28;20113;-68
2023/09/19 00:32:42;;;;;;;4.55;3.08;;;;;;;;;;4986142;28;20062;-68
2023/09/19 00:35:11;;;;;;;9.48;3.50;;;;;;;;;;4987319;28;20547;-68
2023/09/19 00:37:37;;;;;;;8.02;3.20;;;;;;;;;;4990786;28;20126;-68
2023/09/19 00:40:11;;;;;;;7.45;3.20;;;;;;;;;;4994666;28;20109;-68
2023/09/19 00:42:40;;;;;;;5.78;3.08;;;;;;;;;;4995096;28;20487;-68
2023/09/19 00:45:10;;;;;;;4.57;2.97;;;;;;;;;;4988133;28;20035;-68
2023/09/19 00:47:37;;;;;;;6.97;2.90;;;;;;;;;;4993495;28;20499;-68
2023/09/19 00:50:04;;;;;;;6.75;3.17;;;;;;;;;;4993961;28;20113;-68
2023/09/19 00:52:31;;;;;;;5.47;3.05;;;;;;;;;;4995397;28;20036;-68
2023/09/19 00:54:58;;;;;;;7.93;2.78;;;;;;;;;;4990095;28;20392;-68
2023/09/19 00:57:23;;;;;;;7.13;3.10;;;;;;;;;;4990386;28;20118;-68
2023/09/19 00:59:52;;;;;;;6.00;2.85;;;;;;;;;;4987375;28;20070;-68
2023/09/19 01:02:18;;;;;;;3.78;2.60;;;;;;;;;;4995284;28;20050;-68
2023/09/19 01:04:44;;;;;;;7.45;2.88;;;;;;;;;;4994493;28;20092;-68
2023/09/19 01:07:10;;;;;;;6.72;2.95;;;;;;;;;;4991505;28;20049;-68
2023/09/19 01:09:36;;;;;;;4.78;2.92;;;;;;;;;;4993596;28;20030;-68
2023/09/19 01:12:04;;;;;;;4.55;2.28;;;;;;;;;;4990241;28;20038;-68
2023/09/19 01:14:57;;;;;;;6.53;2.75;;;;;;;;;;4991861;28;20019;-68
2023/09/19 01:17:23;;;;;;;4.38;2.47;;;;;;;;;;5017077;28;20045;-68
2023/09/19 01:20:36;;;;;;;6.57;2.83;;;;;;;;;;4987762;28;20349;-68
2023/09/19 01:23:26;;;;;;;4.20;2.53;;;;;;;;;;5009358;28;20055;-68
2023/09/19 01:26:05;;;;;;;8.27;3.45;;;;;;;;;;4969924;28;20390;-68
2023/09/19 01:29:06;;;;;;;7.53;3.03;;;;;;;;;;4974136;28;20539;-69
2023/09/19 01:31:35;;;;;;;5.20;2.70;;;;;;;;;;4985379;28;20042;-69
2023/09/19 01:34:04;;;;;;;5.65;2.97;;;;;;;;;;4994986;28;20077;-69
2023/09/19 01:36:35;;;;;;;4.38;2.85;;;;;;;;;;4989275;28;20038;-68
2023/09/19 01:39:13;;;;;;;;;;;;;;;;;;4990936;28;20085;-69
2023/09/19 01:41:54;;;;;;;7.18;3.08;;;;;;;;;;4994060;28;19918;-70
2023/09/19 01:44:31;;;;;;;5.00;2.70;;;;;;;;;;4994160;28;20062;-69
2023/09/19 01:47:03;;;;;;;3.42;2.40;;;;;;;;;;4989373;28;20148;-69
2023/09/19 01:49:40;;;;;;;3.22;2.72;;;;;;;;;;4994596;28;20041;-69
2023/09/19 01:52:19;;;;;;;3.92;2.47;;;;;;;;;;4986984;28;20042;-69
2023/09/19 01:54:59;;;;;;;7.65;2.97;;;;;;;;;;4991689;28;20107;-69
2023/09/19 01:57:26;;;;;;;4.13;2.25;;;;;;;;;;4989797;28;20081;-69
2023/09/19 01:59:56;;;;;;;6.05;2.50;;;;;;;;;;4997750;28;20041;-68
2023/09/19 02:02:23;;;;;;;4.63;2.38;;;;;;;;;;4994414;28;20050;-69
2023/09/19 02:04:50;;;;;;;7.63;2.40;;;;;;;;;;4989844;28;20038;-68
2023/09/19 02:07:16;;;;;;;4.43;2.42;;;;;;;;;;4995036;28;20062;-68
2023/09/19 02:09:42;;;;;;;3.50;2.20;;;;;;;;;;4997011;28;20029;-69
2023/09/19 02:12:09;;;;;;;4.30;2.22;;;;;;;;;;4997886;28;20038;-68
2023/09/19 02:14:35;;;;;;;6.40;2.35;;;;;;;;;;4995662;28;20524;-68
2023/09/19 02:17:03;;;;;;;4.72;2.22;;;;;;;;;;4992285;28;20037;-68
2023/09/19 02:19:29;;;;;;;4.28;2.13;;;;;;;;;;4989350;28;20071;-69
2023/09/19 02:21:55;;;;;;;7.25;2.35;;;;;;;;;;4994537;28;20046;-69
2023/09/19 02:24:20;;;;;;;3.30;1.90;;;;;;;;;;5000261;28;20038;-69
2023/09/19 02:26:47;;;;;;;4.20;2.00;;;;;;;;;;4992646;28;20050;-69
2023/09/19 02:29:13;;;;;;;3.38;2.20;;;;;;;;;;4996933;28;20041;-68
2023/09/19 02:31:39;;;;;;;4.47;1.70;;;;;;;;;;4998960;28;20054;-68
2023/09/19 02:34:06;;;;;;;3.33;2.28;;;;;;;;;;4989349;28;20037;-68
2023/09/19 02:36:34;;;;;;;2.55;1.80;;;;;;;;;;4998617;28;20046;-68
2023/09/19 02:39:00;;;;;;;2.20;1.90;;;;;;;;;;4983267;28;20030;-68
2023/09/19 02:41:25;;;;;;;3.55;2.30;;;;;;;;;;5007174;28;20516;-68
2023/09/19 02:43:50;;;;;;;4.22;2.03;;;;;;;;;;4989371;28;20030;-68
2023/09/19 02:46:16;;;;;;;3.55;2.00;;;;;;;;;;4998421;28;20049;-68
2023/09/19 02:48:42;;;;;;;5.38;1.77;;;;;;;;;;4994844;28;20393;-68
2023/09/19 02:51:07;;;;;;;2.67;1.67;;;;;;;;;;4995274;28;20404;-68
2023/09/19 02:53:33;;;;;;;2.55;1.70;;;;;;;;;;4980086;28;20037;-68
2023/09/19 02:55:58;;;;;;;3.40;2.10;;;;;;;;;;4991902;28;20069;-68
2023/09/19 02:58:24;;;;;;;2.13;1.75;;;;;;;;;;4997608;28;20042;-68
2023/09/19 03:00:51;;;;;;;1.67;1.58;;;;;;;;;;4994958;28;20034;-68
2023/09/19 03:03:17;;;;;;;2.65;1.83;;;;;;;;;;4996178;28;20484;-68
2023/09/19 03:05:46;;;;;;;2.85;1.80;;;;;;;;;;4996096;28;20174;-68
2023/09/19 03:08:16;;;;;;;2.63;1.70;;;;;;;;;;4988179;28;20026;-69
2023/09/19 03:10:42;;;;;;;1.75;1.65;;;;;;;;;;4994924;28;20070;-68
2023/09/19 03:13:09;;;;;;;2.05;1.40;;;;;;;;;;4990574;28;20039;-68
2023/09/19 03:15:38;;;;;;;5.28;2.05;;;;;;;;;;4995373;28;20093;-68
2023/09/19 03:18:04;;;;;;;2.85;1.95;;;;;;;;;;4991010;28;20043;-69
2023/09/19 03:20:30;;;;;;;1.60;1.50;;;;;;;;;;4992227;28;20034;-68
2023/09/19 03:22:57;;;;;;;2.60;1.80;;;;;;;;;;4998675;28;20030;-68
2023/09/19 03:25:23;;;;;;;1.73;1.63;;;;;;;;;;4997630;28;20046;-68
2023/09/19 03:27:48;;;;;;;3.22;1.98;;;;;;;;;;4991815;28;20380;-69
2023/09/19 03:30:14;;;;;;;3.03;1.67;;;;;;;;;;4999063;28;20039;-69
2023/09/19 03:32:49;;;;;;;2.22;1.65;;;;;;;;;;4984809;28;20062;-70
2023/09/19 03:35:15;;;;;;;3.13;1.63;;;;;;;;;;4994138;28;20034;-68
2023/09/19 03:37:42;;;;;;;2.15;1.65;;;;;;;;;;4993947;28;20034;-68
2023/09/19 03:40:10;;;;;;;2.20;1.40;;;;;;;;;;4985048;28;20101;-69
2023/09/19 03:42:38;;;;;;;2.55;1.48;;;;;;;;;;4997172;28;20030;-69
2023/09/19 03:45:05;;;;;;;2.63;1.33;;;;;;;;;;4994170;28;20033;-69
2023/09/19 03:47:31;;;;;;;2.03;1.80;;;;;;;;;;4995430;28;20547;-69
2023/09/19 03:49:56;;;;;;;4.85;1.88;;;;;;;;;;4992522;28;20030;-69
2023/09/19 03:52:21;;;;;;;2.78;1.55;;;;;;;;;;4996851;28;20431;-69
2023/09/19 03:54:47;;;;;;;1.95;1.50;;;;;;;;;;4997381;28;20030;-69
2023/09/19 03:57:15;;;;;;;1.85;1.70;;;;;;;;;;4997235;28;20030;-68
2023/09/19 03:59:42;;;;;;;4.18;1.55;;;;;;;;;;4992320;28;20156;-68
2023/09/19 04:02:11;;;;;;;1.90;1.38;;;;;;;;;;4997153;28;20057;-68
2023/09/19 04:04:37;;;;;;;2.35;1.30;;;;;;;;;;4990777;28;20033;-68
2023/09/19 04:07:02;;;;;;;3.33;1.50;;;;;;;;;;4991554;28;20035;-68
2023/09/19 04:09:28;;;;;;;3.38;1.80;;;;;;;;;;4976790;28;20033;-69
2023/09/19 04:11:53;;;;;;;1.30;1.20;;;;;;;;;;4992583;28;20046;-68
2023/09/19 04:14:19;;;;;;;3.38;1.63;;;;;;;;;;4996581;28;20050;-69
2023/09/19 04:16:44;;;;;;;3.97;1.40;;;;;;;;;;4997293;28;20050;-69
2023/09/19 04:19:09;;;;;;;1.63;1.40;;;;;;;;;;4991621;28;20062;-69
2023/09/19 04:21:35;;;;;;;1.98;1.52;;;;;;;;;;4988951;28;20125;-68
2023/09/19 04:24:00;;;;;;;1.67;1.40;;;;;;;;;;4978011;28;20026;-68
2023/09/19 04:26:26;;;;;;;1.55;1.27;;;;;;;;;;4988456;28;20034;-68
2023/09/19 04:28:51;;;;;;;1.30;1.20;;;;;;;;;;4992682;28;20022;-68
2023/09/19 04:31:18;;;;;;;2.53;1.30;;;;;;;;;;4992406;28;20034;-67
2023/09/19 04:33:43;;;;;;;1.65;1.23;;;;;;;;;;4991396;28;20040;-68
2023/09/19 04:36:09;;;;;;;2.92;1.63;;;;;;;;;;4989665;28;20130;-68
2023/09/19 04:38:35;;;;;;;3.33;1.45;;;;;;;;;;4988432;28;20540;-68
2023/09/19 04:41:00;;;;;;;3.08;1.40;;;;;;;;;;4976534;28;20050;-67
2023/09/19 04:43:26;;;;;;;3.35;1.80;;;;;;;;;;4994204;28;20034;-69
2023/09/19 04:45:55;;;;;;;1.10;1.10;;;;;;;;;;4996249;28;20049;-68
2023/09/19 04:48:24;;;;;;;2.03;1.35;;;;;;;;;;4994258;28;20030;-69
2023/09/19 04:50:49;;;;;;;2.80;1.92;;;;;;;;;;4991221;28;20119;-68
2023/09/19 04:53:14;;;;;;;4.30;1.52;;;;;;;;;;4994281;28;20061;-69
2023/09/19 04:55:40;;;;;;;4.05;1.40;;;;;;;;;;4991241;28;20034;-68
2023/09/19 04:58:05;;;;;;;4.55;1.55;;;;;;;;;;4982789;28;20027;-68
2023/09/19 05:00:34;;;;;;;1.73;1.63;;;;;;;;;;4986665;28;20033;-68
2023/09/19 05:03:00;;;;;;;1.42;1.33;;;;;;;;;;4990230;28;20030;-68
2023/09/19 05:05:26;;;;;;;1.10;1.10;;;;;;;;;;4992224;28;20046;-68
2023/09/19 05:07:53;;;;;;;1.73;1.10;;;;;;;;;;4995745;28;20476;-68
2023/09/19 05:10:19;;;;;;;1.35;1.05;;;;;;;;;;4986305;28;20053;-69
2023/09/19 05:12:47;;;;;;;1.30;1.20;;;;;;;;;;4992702;28;20125;-69
2023/09/19 05:15:14;;;;;;;1.27;1.20;;;;;;;;;;4990763;28;20104;-70
2023/09/19 05:17:40;;;;;;;2.83;1.05;;;;;;;;;;4988091;28;20080;-70
2023/09/19 05:20:15;;;;;;;1.38;1.20;;;;;;;;;;4983334;28;20026;-70
2023/09/19 05:22:42;;;;;;;2.08;1.23;;;;;;;;;;4987587;28;20042;-70
2023/09/19 05:25:09;;;;;;;3.67;1.30;;;;;;;;;;4988854;28;20472;-71
2023/09/19 05:27:34;;;;;;;2.20;1.00;;;;;;;;;;4980567;28;20369;-68
2023/09/19 05:29:59;;;;;;;2.97;1.10;;;;;;;;;;4986119;28;20038;-71
2023/09/19 05:32:25;;;;;;;1.52;1.02;;;;;;;;;;4989111;28;20033;-72
2023/09/19 05:34:56;;;;;;;2.38;1.40;;;;;;;;;;4987780;28;20033;-70
2023/09/19 05:37:23;;;;;;;2.10;1.15;;;;;;;;;;4984814;28;20034;-70
2023/09/19 05:39:48;;;;;;;4.43;0.90;;;;;;;;;;4982027;28;20046;-66
2023/09/19 05:42:14;;;;;;;2.80;1.10;;;;;;;;;;4988317;28;20089;-67
2023/09/19 05:44:40;;;;;;;1.35;1.25;;;;;;;;;;4990760;28;20038;-68
2023/09/19 05:47:08;;;;;;;1.45;1.20;;;;;;;;;;4984524;28;20113;-68
2023/09/19 05:49:38;;;;;;;1.08;1.05;;;;;;;;;;4984322;28;20114;-68
2023/09/19 05:52:06;;;;;;;0.95;0.85;;;;;;;;;;4981636;28;20050;-68
2023/09/19 05:54:34;;;;;;;1.67;1.35;;;;;;;;;;4983723;28;20030;-68
2023/09/19 05:57:02;;;;;;;3.67;1.55;;;;;;;;;;4995571;28;20038;-68
2023/09/19 05:59:28;;;;;;;3.40;1.10;;;;;;;;;;4991071;28;20152;-68
2023/09/19 06:01:53;;;;;;;1.63;1.20;;;;;;;;;;4979812;28;20121;-68
2023/09/19 06:04:21;;;;;;;1.38;1.20;;;;;;;;;;4991320;28;20027;-68
2023/09/19 06:06:48;;;;;;;1.95;1.38;;;;;;;;;;4994206;28;20658;-68
2023/09/19 06:09:14;;;;;;;2.08;1.15;;;;;;;;;;4990266;28;20030;-68
2023/09/19 06:11:42;;;;;;;1.80;1.55;;;;;;;;;;4992400;28;20052;-69
2023/09/19 06:14:07;;;;;;;1.60;1.15;;;;;;;;;;4992691;28;20388;-67
2023/09/19 06:16:33;;;;;;;1.20;1.10;;;;;;;;;;4987618;28;20122;-69
2023/09/19 06:18:59;;;;;;;3.80;1.25;;;;;;;;;;4983057;28;20623;-68
2023/09/19 06:21:26;;;;;;;2.63;1.23;;;;;;;;;;4986605;28;20042;-69
2023/09/19 06:23:52;;;;;;;3.40;1.50;;;;;;;;;;4989094;28;20022;-69
2023/09/19 06:26:18;;;;;;;5.82;1.60;;;;;;;;;;4987910;28;20051;-69
2023/09/19 06:28:44;;;;;;;4.20;1.27;;;;;;;;;;4984312;28;20034;-69
2023/09/19 06:31:09;;;;;;;2.15;1.13;;;;;;;;;;4987001;28;20045;-69
2023/09/19 06:33:42;;;;;;;3.08;1.40;;;;;;;;;;4994911;28;20118;-69
2023/09/19 06:36:08;;;;;;;1.88;1.15;;;;;;;;;;4990340;28;20346;-69
2023/09/19 06:38:35;;;;;;;1.83;1.33;;;;;;;;;;4992775;28;20062;-69
2023/09/19 06:41:04;;;;;;;1.52;1.23;;;;;;;;;;4992325;28;20041;-69
2023/09/19 06:43:30;;;;;;;2.40;1.60;;;;;;;;;;4995935;28;20431;-69
2023/09/19 06:45:56;;;;;;;5.55;1.35;;;;;;;;;;4985432;28;20057;-69
2023/09/19 06:48:21;;;;;;;3.17;1.27;;;;;;;;;;4999584;28;20018;-68
2023/09/19 06:50:48;;;;;;;4.47;1.30;;;;;;;;;;4994978;28;20519;-69
2023/09/19 06:53:13;;;;;;;3.47;1.20;;;;;;;;;;4997411;28;20033;-69
2023/09/19 06:55:40;;;;;;;2.47;1.20;;;;;;;;;;4993679;28;20034;-69
2023/09/19 06:58:06;;;;;;;1.48;1.33;;;;;;;;;;4995493;28;20101;-69
2023/09/19 07:00:36;;;;;;;2.42;1.23;;;;;;;;;;4989434;28;20046;-68
2023/09/19 07:03:11;;;;;;;1.98;1.02;;;;;;;;;;4999439;28;20038;-69
2023/09/19 07:05:38;;;;;;;3.17;1.33;;;;;;;;;;4993704;28;20133;-69
2023/09/19 07:08:05;;;;;;;1.92;1.00;;;;;;;;;;4996385;28;20415;-69
2023/09/19 07:10:32;;;;;;;3.90;1.33;;;;;;;;;;4996754;28;20069;-69
2023/09/19 07:13:02;;;;;;;2.53;1.50;;;;;;;;;;4995474;28;20050;-69
2023/09/19 07:15:30;;;;;;;2.20;1.38;;;;;;;;;;4996578;28;20049;-68
2023/09/19 07:17:56;;;;;;;1.00;0.90;;;;;;;;;;4984958;28;20054;-68
2023/09/19 07:20:25;;;;;;;1.27;0.80;;;;;;;;;;4993858;28;20045;-68
2023/09/19 07:22:50;;;;;;;1.80;1.35;;;;;;;;;;4988875;28;20094;-69
2023/09/19 07:25:16;;;;;;;2.75;1.00;;;;;;;;;;4994585;28;20046;-68
2023/09/19 07:27:42;;;;;;;3.20;1.20;;;;;;;;;;4997176;28;20030;-69
2023/09/19 07:30:08;;;;;;;1.02;1.00;;;;;;;;;;4995624;28;20500;-69
2023/09/19 07:32:36;;;;;;;1.20;1.10;;;;;;;;;;4988148;28;20030;-69
2023/09/19 07:35:02;;;;;;;1.25;0.98;;;;;;;;;;4996891;28;20030;-68
2023/09/19 07:37:29;;;;;;;3.70;1.17;;;;;;;;;;4987748;28;20434;-68
2023/09/19 07:39:54;;;;;;;1.65;1.30;;;;;;;;;;4992221;28;20060;-68
2023/09/19 07:42:20;;;;;;;1.70;1.10;;;;;;;;;;4996780;28;20022;-69
2023/09/19 07:44:50;;;;;;;2.10;1.23;;;;;;;;;;4983047;28;20544;-69
2023/09/19 07:47:16;;;;;;;1.83;0.90;;;;;;;;;;4984410;28;20050;-68
2023/09/19 07:49:42;;;;;;;1.65;1.25;;;;;;;;;;4997135;28;20035;-69
2023/09/19 07:52:09;;;;;;;1.52;1.00;;;;;;;;;;4994742;28;20039;-69
2023/09/19 07:54:35;;;;;;;4.95;1.00;;;;;;;;;;4994453;28;20041;-69
2023/09/19 07:57:01;;;;;;;2.50;0.70;;;;;;;;;;4992899;28;20026;-69
2023/09/19 07:59:26;;;;;;;3.47;1.10;;;;;;;;;;4998028;28;20257;-69
2023/09/19 08:01:52;;;;;;;3.67;0.85;;;;;;;;;;4995197;28;20138;-69
2023/09/19 08:04:19;;;;;;;1.70;1.10;;;;;;;;;;4991267;28;20120;-69
2023/09/19 08:06:44;;;;;;;1.65;0.98;;;;;;;;;;4996332;28;20033;-68
2023/09/19 08:09:11;;;;;;;1.02;0.70;;;;;;;;;;4995849;28;20034;-68
2023/09/19 08:11:36;;;;;;;1.10;1.00;;;;;;;;;;4991631;28;20493;-68
2023/09/19 08:14:02;;;;;;;1.80;0.95;;;;;;;;;;4988388;28;20129;-68
2023/09/19 08:16:28;;;;;;;2.00;1.20;;;;;;;;;;4994356;28;20034;-68
2023/09/19 08:18:54;;;;;;;1.10;1.00;;;;;;;;;;4997248;28;20112;-69
2023/09/19 08:21:20;;;;;;;0.90;0.90;;;;;;;;;;4985797;28;20571;-68
2023/09/19 08:23:45;;;;;;;1.10;1.00;;;;;;;;;;4983167;28;20080;-69
2023/09/19 08:26:11;;;;;;;0.80;0.80;;;;;;;;;;4994315;28;20034;-69
2023/09/19 08:28:40;;;;;;;1.05;0.90;;;;;;;;;;4995444;28;20085;-68
2023/09/19 08:31:08;;;;;;;0.90;0.90;;;;;;;;;;4991709;28;20034;-69
2023/09/19 08:33:35;;;;;;;1.10;1.05;;;;;;;;;;4997673;28;20481;-69
2023/09/19 08:36:01;;;;;;;0.98;0.98;;;;;;;;;;4992706;28;20042;-68
2023/09/19 08:38:30;;;;;;;0.82;0.82;;;;;;;;;;4990735;28;20039;-68
2023/09/19 08:41:07;;;;;;;0.98;0.80;;;;;;;;;;4995434;28;20034;-68
2023/09/19 08:43:35;;;;;;;0.85;0.82;;;;;;;;;;4986447;28;20038;-68
2023/09/19 08:46:10;;;;;;;1.20;0.85;;;;;;;;;;4991986;28;20038;-69
2023/09/19 08:48:39;;;;;;;0.80;0.80;;;;;;;;;;4994781;28;20057;-68
2023/09/19 08:51:16;;;;;;;0.80;0.80;;;;;;;;;;4994704;28;20034;-69
2023/09/19 08:53:49;;;;;;;1.25;0.80;;;;;;;;;;4995151;28;20149;-69
2023/09/19 08:56:17;;;;;;;1.85;0.77;;;;;;;;;;4995625;28;20042;-69
2023/09/19 08:59:02;;;;;;;1.05;0.85;;;;;;;;;;4996164;28;20519;-68
2023/09/19 09:01:28;;;;;;;1.00;0.82;;;;;;;;;;4993945;28;20074;-68
2023/09/19 09:03:55;;;;;;;1.33;0.68;;;;;;;;;;4995825;28;20022;-69
2023/09/19 09:06:23;;;;;;;0.80;0.80;;;;;;;;;;4996480;28;20038;-68
2023/09/19 09:08:50;;;;;;;2.45;1.00;;;;;;;;;;4994822;28;20476;-69
2023/09/19 09:11:17;;;;;;;0.85;0.70;;;;;;;;;;4992556;28;20035;-69
2023/09/19 09:13:44;;;;;;;1.40;1.02;;;;;;;;;;4995450;28;20061;-69
2023/09/19 09:16:10;;;;;;;0.80;0.80;;;;;;;;;;4993930;28;20038;-69
2023/09/19 09:18:36;;;;;;;2.72;0.90;;;;;;;;;;4994805;28;20408;-68
2023/09/19 09:21:01;;;;;;;2.08;0.60;;;;;;;;;;4986560;28;20456;-68
2023/09/19 09:23:29;;;;;;;1.67;0.98;;;;;;;;;;4992095;28;20552;-69
2023/09/19 09:26:14;;;;;;;0.70;0.70;;;;;;;;;;4996230;28;20109;-68
2023/09/19 09:28:45;;;;;;;0.80;0.80;;;;;;;;;;4984556;28;20512;-69
2023/09/19 09:31:24;;;;;;;0.60;0.60;;;;;;;;;;4990199;28;20051;-68
2023/09/19 09:33:55;;;;;;;0.85;0.80;;;;;;;;;;4991284;28;20081;-68
2023/09/19 09:36:53;;;;;;;0.93;0.80;;;;;;;;;;4993924;28;20125;-68
2023/09/19 09:39:31;;;;;;;0.88;0.82;;;;;;;;;;4994977;28;20053;-68
2023/09/19 09:41:59;;;;;;;0.98;0.98;;;;;;;;;;4988155;28;20042;-68
2023/09/19 09:44:24;;;;;;;0.80;0.80;;;;;;;;;;4996139;28;20747;-68
2023/09/19 09:52:00;;;;;;;1.42;0.80;;;;;;;;;;4985533;28;20109;-68
2023/09/19 09:54:34;;;;;;;0.73;0.73;;;;;;;;;;4994435;28;20497;-68
2023/09/19 09:57:13;;;;;;;0.82;0.80;;;;;;;;;;4990132;28;20072;-69
2023/09/19 09:59:50;;;;;;;0.82;0.80;;;;;;;;;;4995202;28;20034;-68
2023/09/19 10:02:28;;;;;;;0.77;0.77;;;;;;;;;;4989971;28;20062;-69
2023/09/19 10:05:14;;;;;;;1.00;0.80;;;;;;;;;;4978228;28;20038;-68
2023/09/19 10:07:42;;;;;;;0.52;0.52;;;;;;;;;;4993322;28;20037;-68
2023/09/19 10:10:22;;;;;;;0.82;0.80;;;;;;;;;;4995007;28;20038;-68
2023/09/19 10:12:48;;;;;;;0.63;0.63;;;;;;;;;;4991019;28;20038;-68
2023/09/19 10:15:20;;;;;;;1.25;1.10;;;;;;;;;;4995376;28;20054;-68
2023/09/19 10:17:46;;;;;;;0.60;0.60;;;;;;;;;;4997171;28;20026;-69
2023/09/19 10:20:33;;;;;;;0.60;0.60;;;;;;;;;;4988680;28;20048;-68
2023/09/19 10:23:10;;;;;;;1.05;0.88;;;;;;;;;;4992158;28;20026;-69
2023/09/19 10:25:37;;;;;;;0.88;0.68;;;;;;;;;;4999841;28;20504;-68
2023/09/19 10:28:06;;;;;;;0.82;0.68;;;;;;;;;;4995805;28;20113;-70
2023/09/19 10:30:34;;;;;;;1.00;0.88;;;;;;;;;;4999257;28;20081;-68
2023/09/19 10:33:05;;;;;;;1.15;1.00;;;;;;;;;;4996189;28;20121;-69
2023/09/19 10:35:32;;;;;;;0.70;0.70;;;;;;;;;;4988143;28;20067;-68
2023/09/19 10:38:01;;;;;;;0.95;0.85;;;;;;;;;;4996884;28;20522;-68
2023/09/19 10:40:32;;;;;;;0.65;0.60;;;;;;;;;;4997351;28;20444;-69
2023/09/19 10:43:03;;;;;;;;;;;;;;;;;;4997794;28;20030;-69
2023/09/19 10:45:31;;;;;;;1.53;1.07;;;;;;;;;;4996444;28;19921;-68
2023/09/19 10:47:57;;;;;;;0.60;0.60;;;;;;;;;;4997727;28;20452;-68
2023/09/19 10:50:23;;;;;;;2.67;0.60;;;;;;;;;;4994364;28;20046;-68
2023/09/19 10:52:57;;;;;;;0.80;0.80;;;;;;;;;;4995296;28;20044;-68
2023/09/19 10:55:27;;;;;;;0.63;0.63;;;;;;;;;;4996807;28;20049;-69
2023/09/19 10:57:53;;;;;;;2.20;0.60;;;;;;;;;;4994615;28;20109;-69
2023/09/19 11:00:26;;;;;;;0.90;0.60;;;;;;;;;;4988376;28;20065;-69
2023/09/19 11:03:12;;;;;;;0.57;0.57;;;;;;;;;;4986750;28;20086;-69
2023/09/19 11:05:40;;;;;;;0.98;0.77;;;;;;;;;;4995533;28;20129;-69
2023/09/19 11:08:11;;;;;;;0.88;0.88;;;;;;;;;;4995018;28;20127;-69
2023/09/19 11:10:51;;;;;;;0.70;0.70;;;;;;;;;;4997188;28;20134;-69
2023/09/19 11:13:31;;;;;;;1.65;0.95;;;;;;;;;;4996182;28;20061;-69
2023/09/19 11:15:59;;;;;;;0.88;0.88;;;;;;;;;;4990147;28;20130;-69
2023/09/19 11:18:40;;;;;;;0.80;0.80;;;;;;;;;;4995625;28;20065;-69
2023/09/19 11:21:33;;;;;;;0.90;0.80;;;;;;;;;;4986750;28;20035;-68
2023/09/19 11:24:22;;;;;;;2.22;0.80;;;;;;;;;;4988863;28;20029;-68
2023/09/19 11:26:47;;;;;;;0.80;0.70;;;;;;;;;;4997645;28;20061;-69
2023/09/19 11:29:30;;;;;;;1.00;1.00;;;;;;;;;;4995215;28;20484;-69
2023/09/19 11:31:59;;;;;;;0.80;0.80;;;;;;;;;;4998430;28;20124;-69
2023/09/19 11:34:36;;;;;;;2.13;1.00;;;;;;;;;;4997451;28;20365;-68
2023/09/19 11:37:28;;;;;;;0.68;0.68;;;;;;;;;;4995827;28;20126;-68
2023/09/19 11:40:17;;;;;;;0.70;0.70;;;;;;;;;;4989430;28;20453;-68
2023/09/19 11:42:44;;;;;;;0.73;0.73;;;;;;;;;;4989274;28;20410;-69
2023/09/19 11:45:40;;;;;;;1.30;0.88;;;;;;;;;;4995333;28;20113;-68
2023/09/19 11:48:07;;;;;;;0.85;0.85;;;;;;;;;;4991680;28;20488;-69
2023/09/19 11:50:36;;;;;;;0.80;0.80;;;;;;;;;;4995857;28;20038;-69
2023/09/19 11:53:02;;;;;;;0.60;0.60;;;;;;;;;;4994525;28;20018;-68
2023/09/19 11:55:32;;;;;;;0.80;0.80;;;;;;;;;;4991890;28;20039;-68
2023/09/19 11:57:59;;;;;;;0.82;0.70;;;;;;;;;;4988122;28;20531;-69
2023/09/19 12:00:26;;;;;;;0.70;0.70;;;;;;;;;;4990748;28;20042;-69
2023/09/19 12:03:00;;;;;;;0.80;0.80;;;;;;;;;;5003725;28;20030;-69
2023/09/19 12:05:31;;;;;;;0.63;0.63;;;;;;;;;;4995389;28;20648;-69
2023/09/19 12:07:56;;;;;;;0.80;0.80;;;;;;;;;;4997364;28;20022;-69
2023/09/19 12:10:23;;;;;;;1.83;0.82;;;;;;;;;;4995676;28;20135;-68
2023/09/19 12:12:49;;;;;;;1.13;0.90;;;;;;;;;;4988569;28;20042;-69
2023/09/19 12:15:15;;;;;;;2.20;0.80;;;;;;;;;;4991056;28;20027;-68
2023/09/19 12:17:42;;;;;;;1.00;0.90;;;;;;;;;;4994859;28;20034;-68
2023/09/19 12:20:14;;;;;;;0.88;0.88;;;;;;;;;;4997067;28;20101;-69
2023/09/19 12:22:43;;;;;;;2.38;1.08;;;;;;;;;;4990590;28;20041;-68
2023/09/19 12:25:11;;;;;;;1.80;0.82;;;;;;;;;;4993330;28;20101;-68
2023/09/19 12:27:52;;;;;;;0.80;0.80;;;;;;;;;;4997624;28;20030;-68
2023/09/19 12:30:20;;;;;;;0.82;0.82;;;;;;;;;;4988536;28;20635;-69
2023/09/19 12:32:47;;;;;;;0.90;0.90;;;;;;;;;;4997290;28;20034;-69
2023/09/19 12:35:29;;;;;;;2.40;0.77;;;;;;;;;;4989415;28;20034;-68
2023/09/19 12:37:55;;;;;;;0.70;0.70;;;;;;;;;;4997930;28;20033;-68
2023/09/19 12:40:28;;;;;;;0.70;0.70;;;;;;;;;;4994158;28;20034;-68
2023/09/19 12:42:58;;;;;;;1.15;0.90;;;;;;;;;;4986606;28;20451;-69
2023/09/19 12:45:24;;;;;;;0.80;0.80;;;;;;;;;;4985253;28;20053;-68
2023/09/19 12:48:31;;;;;;;1.55;0.80;;;;;;;;;;4993729;28;20410;-69
2023/09/19 12:51:09;;;;;;;0.80;0.80;;;;;;;;;;4991058;28;20041;-68
2023/09/19 12:53:40;;;;;;;0.90;0.80;;;;;;;;;;4992540;28;20110;-68
2023/09/19 12:56:08;;;;;;;0.70;0.70;;;;;;;;;;4995142;28;20030;-68
2023/09/19 12:58:34;;;;;;;1.20;0.73;;;;;;;;;;4995595;28;20027;-68
2023/09/19 13:01:01;;;;;;;0.85;0.70;;;;;;;;;;4996163;28;20147;-68
2023/09/19 13:03:35;;;;;;;0.88;0.75;;;;;;;;;;4989964;28;20037;-69
2023/09/19 13:06:03;;;;;;;0.63;0.63;;;;;;;;;;4993104;28;20045;-69
2023/09/19 13:08:38;;;;;;;0.60;0.60;;;;;;;;;;4995864;28;20026;-69
2023/09/19 13:11:20;;;;;;;0.60;0.60;;;;;;;;;;4996457;28;20072;-68
2023/09/19 13:14:05;;;;;;;0.68;0.68;;;;;;;;;;4994465;28;20048;-69
2023/09/19 13:16:31;;;;;;;1.08;0.75;;;;;;;;;;4990756;28;20062;-68
2023/09/19 13:18:57;;;;;;;0.80;0.77;;;;;;;;;;4988910;28;20061;-69
2023/09/19 13:21:42;;;;;;;0.70;0.70;;;;;;;;;;4987736;28;20038;-69
2023/09/19 13:24:23;;;;;;;0.80;0.80;;;;;;;;;;4981429;28;20065;-69
2023/09/19 13:26:48;;;;;;;0.73;0.73;;;;;;;;;;4994201;28;20045;-68
2023/09/19 13:29:17;;;;;;;0.70;0.70;;;;;;;;;;4993501;28;20414;-69
2023/09/19 13:31:49;;;;;;;0.70;0.60;;;;;;;;;;4992926;28;20088;-69
2023/09/19 13:34:18;;;;;;;;;;;;;;;;;;4994949;28;20651;-68
2023/09/19 13:36:44;;;;;;;0.60;0.60;;;;;;;;;;4993420;28;19925;-69
2023/09/19 13:39:09;;;;;;;0.70;0.70;;;;;;;;;;4987053;28;20035;-69
2023/09/19 13:41:39;;;;;;;0.75;0.70;;;;;;;;;;4988771;28;20045;-69
2023/09/19 13:44:04;;;;;;;0.52;0.52;;;;;;;;;;4996317;28;20030;-69
2023/09/19 13:46:34;;;;;;;0.57;0.57;;;;;;;;;;4991069;28;20584;-69
2023/09/19 13:49:03;;;;;;;0.70;0.60;;;;;;;;;;4996260;28;20117;-69
2023/09/19 13:51:29;;;;;;;0.55;0.55;;;;;;;;;;4991920;28;20049;-69
2023/09/19 13:53:55;;;;;;;0.80;0.80;;;;;;;;;;4995874;28;20057;-69
2023/09/19 13:56:21;;;;;;;0.60;0.60;;;;;;;;;;4995315;28;20037;-69
2023/09/19 13:58:47;;;;;;;0.40;0.40;;;;;;;;;;4991246;28;20542;-69
2023/09/19 14:01:12;;;;;;;2.10;0.75;;;;;;;;;;4995326;28;20035;-70
2023/09/19 14:03:46;;;;;;;0.60;0.60;;;;;;;;;;4982435;28;20374;-69
2023/09/19 14:06:12;;;;;;;0.65;0.65;;;;;;;;;;4995924;28;20043;-69
2023/09/19 14:08:38;;;;;;;0.70;0.70;;;;;;;;;;4988949;28;20098;-69
2023/09/19 14:11:10;;;;;;;0.70;0.70;;;;;;;;;;4990158;28;20137;-69
2023/09/19 14:13:35;;;;;;;0.60;0.60;;;;;;;;;;4995903;28;20116;-69
2023/09/19 14:16:05;;;;;;;0.60;0.60;;;;;;;;;;4993195;28;20545;-69
2023/09/19 14:18:30;;;;;;;0.55;0.55;;;;;;;;;;4994952;28;20097;-69
2023/09/19 14:20:56;;;;;;;0.40;0.40;;;;;;;;;;4985129;28;20042;-69
2023/09/19 14:23:23;;;;;;;0.40;0.40;;;;;;;;;;4991768;28;20034;-69
2023/09/19 14:25:48;;;;;;;0.55;0.50;;;;;;;;;;4982419;28;20470;-69
2023/09/19 14:28:14;;;;;;;2.13;0.70;;;;;;;;;;5022649;28;20072;-69
2023/09/19 14:30:39;;;;;;;0.52;0.52;;;;;;;;;;4995208;28;20073;-69
2023/09/19 14:33:06;;;;;;;0.57;0.57;;;;;;;;;;4994300;28;20027;-68
2023/09/19 14:35:31;;;;;;;0.50;0.50;;;;;;;;;;4990836;28;20042;-69
2023/09/19 14:37:56;;;;;;;1.02;0.43;;;;;;;;;;4993803;28;20112;-69
2023/09/19 14:40:22;;;;;;;0.95;0.70;;;;;;;;;;4993922;28;20034;-69
2023/09/19 14:42:48;;;;;;;0.57;0.57;;;;;;;;;;4989468;28;20130;-68
2023/09/19 14:45:17;;;;;;;0.50;0.50;;;;;;;;;;4994151;28;20066;-69
2023/09/19 14:47:43;;;;;;;0.65;0.60;;;;;;;;;;4994075;28;20563;-69
2023/09/19 14:50:10;;;;;;;2.08;0.73;;;;;;;;;;4994888;28;20037;-68
2023/09/19 14:52:36;;;;;;;0.75;0.70;;;;;;;;;;4996179;28;20018;-69
2023/09/19 14:55:01;;;;;;;0.60;0.60;;;;;;;;;;4990693;28;20406;-69
2023/09/19 14:57:27;;;;;;;0.50;0.50;;;;;;;;;;4991181;28;20026;-69
2023/09/19 14:59:52;;;;;;;0.60;0.60;;;;;;;;;;4981632;28;20056;-68